Etusivu
METAR-TAF:

METAR-TAF

Lentoasemat :

Pell City, Alabama, Yhdysvallat

Leveyspiiri: 33-33-32N, Pituuspiiri: 086-14-57W, korkeus merenpinnasta: 148 m

Tämänhetkinen sää

Tämä raportti tehtiin 10 minuuttia sitten, kello 04.35 UTC
tyyntä
Lämpötila 0°C
Kosteus 100%
Ilmanpaine 1022 hPa
Näkyvyys: 16.1 km
Muutamia pilviä 5500 ft:n korkeudessa
Muutamia pilviä 6500 ft:n korkeudessa
Muutamia pilviä 7500 ft:n korkeudessa

METAR: KPLR 260435Z AUTO 00000KT 10SM FEW055 FEW065 FEW075 00/00 A3017 RMK A01

Aika: 22:45 (04:45 UTC)


TAF: puuttuu

Säähavainnot ja -ennusteet yli 4000 lentoasemalta (METAR- ja TAF-raportit).

Käytössä olevat sääasemat on merkitty karttaan keltaisilla ja punaisilla pisteillä.

Aseta hiiri pisteen päälle nähdäksesi sääaseman nimen.

Klikkaa sitten nähdäksesi säähavainnot ja -ennusteet.

Kartan vaihtaminen: klikkaa mustalla rastilla varustettuja vihreitä pisteitä, niin voit zoomata sisään; viivalla varustettua vihreää pistettä, niin voit zoomata ulos tai vihreitä nuolia, niin pääset viereisille kartoille.


METAR-TAF: